Time;durP1;ratioP1;P1;durP2;ratioP2;P2;SDS_P1;SDS_P2;PMS_P1;PMS_P2;Temp;Humidity;BMP_temperature;BMP_pressure;BME280_temperature;BME280_humidity;BME280_pressure;Samples;Min_cycle;Max_cycle;Signal;HPM_P1;HPM_P2
2021/08/29 00:01:59;;;;;;;8.97;7.90;;;15.30;99.90;;;;;;5055082;28;20191;-68
2021/08/29 00:04:25;;;;;;;8.93;8.30;;;15.20;99.90;;;;;;5067238;28;20617;-68
2021/08/29 00:06:51;;;;;;;10.93;8.03;;;15.20;99.90;;;;;;5074913;28;20170;-68
2021/08/29 00:09:16;;;;;;;8.13;7.43;;;15.20;99.90;;;;;;5064043;28;20217;-68
2021/08/29 00:11:42;;;;;;;8.93;8.13;;;15.20;99.90;;;;;;5054814;28;20191;-66
2021/08/29 00:14:08;;;;;;;9.03;8.13;;;15.20;99.90;;;;;;5063772;28;20684;-67
2021/08/29 00:16:33;;;;;;;8.90;8.23;;;15.10;99.90;;;;;;5074885;28;20205;-68
2021/08/29 00:18:59;;;;;;;9.17;8.27;;;15.10;99.90;;;;;;5067466;28;20580;-66
2021/08/29 00:21:25;;;;;;;8.60;8.00;;;15.10;99.90;;;;;;5065710;28;20178;-69
2021/08/29 00:23:50;;;;;;;8.93;8.20;;;15.10;99.90;;;;;;5069178;28;20171;-67
2021/08/29 00:26:16;;;;;;;8.90;8.00;;;15.10;99.90;;;;;;5054676;28;20203;-67
2021/08/29 00:28:42;;;;;;;9.23;8.40;;;15.00;99.90;;;;;;5058117;28;20221;-66
2021/08/29 00:31:07;;;;;;;9.03;8.23;;;15.00;99.90;;;;;;5074320;28;20175;-68
2021/08/29 00:33:33;;;;;;;8.70;8.00;;;15.10;99.90;;;;;;5054785;28;20202;-67
2021/08/29 00:35:59;;;;;;;8.37;7.57;;;15.00;99.90;;;;;;5054738;28;20575;-67
2021/08/29 00:38:24;;;;;;;8.80;7.93;;;15.10;99.90;;;;;;5055257;28;20721;-68
2021/08/29 00:40:50;;;;;;;8.93;8.23;;;15.00;99.90;;;;;;5053968;28;20232;-67
2021/08/29 00:43:17;;;;;;;8.40;7.50;;;14.90;99.90;;;;;;5070395;28;20237;-68
2021/08/29 00:45:43;;;;;;;9.00;8.13;;;15.00;99.90;;;;;;5074331;28;20220;-67
2021/08/29 00:48:10;;;;;;;8.10;7.30;;;15.00;99.90;;;;;;5059917;28;20175;-67
2021/08/29 00:50:38;;;;;;;10.40;8.97;;;14.90;99.90;;;;;;5054066;28;20171;-67
2021/08/29 00:53:06;;;;;;;8.57;7.83;;;14.90;99.90;;;;;;5067251;28;20190;-67
2021/08/29 00:55:31;;;;;;;9.47;8.63;;;14.90;99.90;;;;;;5074235;28;20212;-67
2021/08/29 00:57:58;;;;;;;10.20;8.20;;;14.90;99.90;;;;;;5061662;28;20261;-67
2021/08/29 01:00:24;;;;;;;9.57;8.60;;;14.90;99.90;;;;;;5061533;28;20182;-66
2021/08/29 01:02:51;;;;;;;8.13;7.53;;;14.90;99.90;;;;;;5073385;28;20182;-67
2021/08/29 01:05:25;;;;;;;9.63;8.67;;;14.90;99.90;;;;;;5053942;28;20194;-67
2021/08/29 01:08:02;;;;;;;10.17;9.03;;;14.90;99.90;;;;;;5053973;28;20194;-67
2021/08/29 01:10:49;;;;;;;9.80;8.60;;;14.80;99.90;;;;;;5033745;28;20545;-67
2021/08/29 01:13:26;;;;;;;10.70;9.53;;;14.80;99.90;;;;;;5039279;28;20210;-66
2021/08/29 01:15:53;;;;;;;10.60;9.60;;;14.80;99.90;;;;;;5073116;28;20218;-67
2021/08/29 01:18:22;;;;;;;10.90;9.83;;;14.80;99.90;;;;;;5070950;28;20647;-67
2021/08/29 01:20:53;;;;;;;10.60;9.33;;;14.70;99.90;;;;;;5053142;28;20167;-67
2021/08/29 01:23:22;;;;;;;11.53;10.33;;;14.70;99.90;;;;;;5055473;28;20190;-67
2021/08/29 01:25:55;;;;;;;9.27;8.43;;;14.80;99.90;;;;;;5073562;28;20200;-66
2021/08/29 01:28:24;;;;;;;9.80;8.70;;;14.70;99.90;;;;;;5069232;28;20633;-67
2021/08/29 01:30:50;;;;;;;10.43;9.30;;;14.70;99.90;;;;;;5053029;28;20202;-66
2021/08/29 01:33:17;;;;;;;10.70;9.07;;;14.70;99.90;;;;;;5057311;28;20208;-66
2021/08/29 01:35:43;;;;;;;13.80;10.80;;;14.70;99.90;;;;;;5073448;28;20243;-66
2021/08/29 01:38:11;;;;;;;10.87;9.80;;;14.70;99.90;;;;;;5070626;28;20177;-67
2021/08/29 01:40:37;;;;;;;11.43;9.37;;;14.60;99.90;;;;;;5053037;28;20182;-66
2021/08/29 01:43:04;;;;;;;10.03;9.23;;;14.60;99.90;;;;;;5054320;28;20198;-66
2021/08/29 01:45:32;;;;;;;11.77;9.73;;;14.60;99.90;;;;;;5073232;28;20620;-67
2021/08/29 01:47:58;;;;;;;11.13;10.07;;;14.60;99.90;;;;;;5072872;28;20201;-66
2021/08/29 01:50:25;;;;;;;10.47;9.63;;;14.60;99.90;;;;;;5033073;28;20688;-66
2021/08/29 01:52:51;;;;;;;10.17;9.17;;;14.60;99.90;;;;;;5032994;28;20230;-67
2021/08/29 01:55:17;;;;;;;10.67;9.57;;;14.60;99.90;;;;;;5070773;28;20206;-66
2021/08/29 01:57:43;;;;;;;9.77;8.97;;;14.60;99.90;;;;;;5058110;28;20225;-66
2021/08/29 02:00:09;;;;;;;10.53;9.53;;;14.60;99.90;;;;;;5053851;28;20182;-66
2021/08/29 02:02:35;;;;;;;11.60;10.07;;;14.60;99.90;;;;;;5052772;28;20195;-66
2021/08/29 02:05:01;;;;;;;10.70;9.60;;;14.60;99.90;;;;;;5055487;28;20209;-67
2021/08/29 02:07:42;;;;;;;10.80;9.73;;;14.60;99.90;;;;;;5072791;28;20178;-66
2021/08/29 02:10:10;;;;;;;11.57;10.60;;;14.60;99.90;;;;;;5068185;28;20530;-67
2021/08/29 02:12:42;;;;;;;12.70;11.27;;;14.60;99.90;;;;;;5052575;28;20677;-66
2021/08/29 02:15:30;;;;;;;11.90;10.37;;;14.60;99.90;;;;;;5066391;28;20189;-66
2021/08/29 02:17:58;;;;;;;11.07;10.13;;;14.60;99.90;;;;;;5072166;28;20217;-66
2021/08/29 02:20:25;;;;;;;12.13;10.40;;;14.60;99.90;;;;;;5056577;28;20175;-66
2021/08/29 02:22:53;;;;;;;11.47;10.37;;;14.60;99.90;;;;;;5052411;28;20706;-66
2021/08/29 02:25:18;;;;;;;10.10;9.27;;;14.60;99.90;;;;;;5065154;28;20206;-66
2021/08/29 02:27:44;;;;;;;10.13;9.10;;;14.60;99.90;;;;;;5055712;28;20372;-66
2021/08/29 02:30:11;;;;;;;10.43;9.00;;;14.60;99.90;;;;;;5064561;28;20185;-66
2021/08/29 02:32:38;;;;;;;9.63;8.83;;;14.60;99.90;;;;;;5072018;28;20359;-66
2021/08/29 02:35:06;;;;;;;10.20;9.20;;;14.60;99.90;;;;;;5060864;28;20187;-66
2021/08/29 02:37:32;;;;;;;10.40;9.30;;;14.50;99.90;;;;;;5052268;28;20182;-66
2021/08/29 02:39:58;;;;;;;10.57;9.47;;;14.60;99.90;;;;;;5060509;28;20734;-67
2021/08/29 02:42:27;;;;;;;11.77;9.87;;;14.60;99.90;;;;;;5072107;28;20221;-66
2021/08/29 02:44:54;;;;;;;10.67;9.57;;;14.50;99.90;;;;;;5062832;28;20230;-67
2021/08/29 02:47:20;;;;;;;10.63;9.37;;;14.50;99.90;;;;;;5051407;28;20644;-66
2021/08/29 02:49:48;;;;;;;10.80;9.80;;;14.50;99.90;;;;;;5058553;28;20178;-66
2021/08/29 02:52:16;;;;;;;15.77;10.63;;;14.50;99.90;;;;;;5068540;28;20183;-65
2021/08/29 02:54:43;;;;;;;11.93;10.73;;;14.50;99.90;;;;;;5052054;28;20175;-66
2021/08/29 02:57:12;;;;;;;13.70;10.10;;;14.60;99.90;;;;;;5053637;28;20171;-66
2021/08/29 02:59:38;;;;;;;10.57;9.67;;;14.50;99.90;;;;;;5071777;28;20650;-66
2021/08/29 03:02:10;;;;;;;11.60;10.53;;;14.50;99.90;;;;;;5065103;28;20285;-66
2021/08/29 03:04:35;;;;;;;11.73;10.37;;;14.50;99.90;;;;;;5051890;28;20198;-66
2021/08/29 03:07:01;;;;;;;12.03;10.50;;;14.50;99.90;;;;;;5057163;28;20186;-66
2021/08/29 03:09:33;;;;;;;11.33;10.17;;;14.50;99.90;;;;;;5071621;28;20174;-66
2021/08/29 03:12:09;;;;;;;12.63;10.77;;;14.50;99.90;;;;;;5066841;28;20244;-65
2021/08/29 03:14:36;;;;;;;11.73;10.53;;;14.50;99.90;;;;;;5051767;28;20174;-66
2021/08/29 03:17:03;;;;;;;12.43;11.13;;;14.40;99.90;;;;;;5055947;28;20174;-66
2021/08/29 03:19:28;;;;;;;10.83;9.90;;;14.50;99.90;;;;;;5071398;28;20253;-66
2021/08/29 03:21:54;;;;;;;11.00;10.00;;;14.50;99.90;;;;;;5056314;28;20951;-66
2021/08/29 03:24:21;;;;;;;12.00;10.13;;;14.50;99.90;;;;;;5051524;28;20592;-66
2021/08/29 03:26:46;;;;;;;13.93;11.10;;;14.50;99.90;;;;;;5064694;28;20217;-66
2021/08/29 03:29:12;;;;;;;10.87;9.87;;;14.50;99.90;;;;;;5071840;28;20256;-66
2021/08/29 03:31:38;;;;;;;10.90;9.90;;;14.50;99.90;;;;;;5059763;28;20213;-66
2021/08/29 03:34:05;;;;;;;15.47;10.17;;;14.50;99.90;;;;;;5051672;28;20175;-66
2021/08/29 03:36:32;;;;;;;10.57;9.63;;;14.50;99.90;;;;;;5052671;28;20179;-67
2021/08/29 03:39:00;;;;;;;11.27;10.17;;;14.50;99.90;;;;;;5051363;28;20181;-67
2021/08/29 03:41:28;;;;;;;11.10;10.17;;;14.40;99.90;;;;;;5059859;28;20185;-66
2021/08/29 03:43:54;;;;;;;10.80;9.77;;;14.40;99.90;;;;;;5071487;28;20261;-67
2021/08/29 03:46:22;;;;;;;10.27;9.37;;;14.50;99.90;;;;;;5063557;28;20281;-66
2021/08/29 03:48:48;;;;;;;16.73;9.47;;;14.40;99.90;;;;;;5055024;28;20192;-67
2021/08/29 03:51:16;;;;;;;14.13;10.17;;;14.50;99.90;;;;;;5071034;28;20281;-66
2021/08/29 03:53:43;;;;;;;11.50;10.30;;;14.50;99.90;;;;;;5068590;28;20180;-67
2021/08/29 03:56:10;;;;;;;10.83;9.87;;;14.40;99.90;;;;;;5051437;28;20540;-66
2021/08/29 03:58:39;;;;;;;11.27;10.13;;;14.40;99.90;;;;;;5052040;28;20266;-66
2021/08/29 04:01:05;;;;;;;12.33;10.47;;;14.50;99.90;;;;;;5070802;28;20217;-66
2021/08/29 04:03:31;;;;;;;11.00;10.00;;;14.50;99.90;;;;;;5070983;28;20213;-66
2021/08/29 04:05:59;;;;;;;13.63;10.77;;;14.50;99.90;;;;;;5051196;28;20265;-66
2021/08/29 04:08:30;;;;;;;12.23;10.23;;;14.50;99.90;;;;;;5051381;28;20167;-66
2021/08/29 04:10:58;;;;;;;12.27;10.70;;;14.50;99.90;;;;;;5069811;28;20166;-66
2021/08/29 04:13:27;;;;;;;11.17;9.50;;;14.50;99.90;;;;;;5071229;28;20190;-66
2021/08/29 04:15:53;;;;;;;11.23;10.13;;;14.50;99.90;;;;;;5052533;28;20512;-66
2021/08/29 04:18:20;;;;;;;10.37;9.27;;;14.50;99.90;;;;;;5065309;28;20186;-66
2021/08/29 04:20:47;;;;;;;11.00;9.90;;;14.50;99.90;;;;;;5069570;28;20209;-66
2021/08/29 04:23:13;;;;;;;13.73;10.17;;;14.40;99.90;;;;;;5057787;28;20850;-65
2021/08/29 04:25:39;;;;;;;11.37;9.73;;;14.30;99.90;;;;;;5050836;28;20206;-66
2021/08/29 04:28:05;;;;;;;11.60;9.80;;;14.30;99.90;;;;;;5062202;28;20174;-66
2021/08/29 04:30:31;;;;;;;16.57;10.97;;;14.30;99.90;;;;;;5070720;28;20284;-66
2021/08/29 04:35:24;;;;;;;10.97;9.87;;;14.30;99.90;;;;;;5053208;28;20219;-65
2021/08/29 04:37:51;;;;;;;11.10;9.93;;;14.30;99.90;;;;;;5061712;28;20192;-65
2021/08/29 04:40:17;;;;;;;10.53;9.50;;;14.30;99.90;;;;;;5034394;28;20198;-65
2021/08/29 04:42:43;;;;;;;13.30;10.60;;;14.30;99.90;;;;;;5040924;28;20226;-65
2021/08/29 04:45:09;;;;;;;13.40;10.40;;;14.30;99.90;;;;;;5049181;28;20198;-65
2021/08/29 04:47:34;;;;;;;13.23;10.33;;;14.30;99.90;;;;;;5034400;28;20560;-65
2021/08/29 04:50:00;;;;;;;12.50;10.80;;;14.40;99.90;;;;;;5034867;28;20163;-65
2021/08/29 04:52:25;;;;;;;11.53;10.43;;;14.40;99.90;;;;;;5054341;28;20187;-65
2021/08/29 04:54:51;;;;;;;14.03;11.23;;;14.40;99.90;;;;;;5054305;28;20182;-65
2021/08/29 04:57:17;;;;;;;16.77;11.00;;;14.40;99.90;;;;;;5034853;28;20190;-65
2021/08/29 04:59:42;;;;;;;14.80;10.47;;;14.30;99.90;;;;;;5035011;28;20250;-65
2021/08/29 05:02:08;;;;;;;14.23;10.53;;;14.30;99.90;;;;;;5036523;28;20210;-65
2021/08/29 05:04:33;;;;;;;16.97;10.77;;;14.40;99.90;;;;;;5034087;28;20199;-65
2021/08/29 05:06:59;;;;;;;13.63;11.47;;;14.40;99.90;;;;;;5053604;28;20189;-65
2021/08/29 05:09:24;;;;;;;16.40;11.40;;;14.40;99.90;;;;;;5053757;28;20171;-65
2021/08/29 05:11:50;;;;;;;14.40;11.23;;;14.40;99.90;;;;;;5035726;28;20241;-65
2021/08/29 05:14:16;;;;;;;11.40;10.17;;;14.50;99.90;;;;;;5043385;28;20657;-65
2021/08/29 05:16:41;;;;;;;14.87;10.73;;;14.50;99.90;;;;;;5053804;28;20280;-65
2021/08/29 05:19:07;;;;;;;13.50;10.77;;;14.50;99.90;;;;;;5045566;28;20233;-66
2021/08/29 05:21:32;;;;;;;13.93;12.43;;;14.50;99.90;;;;;;5033519;28;20203;-65
2021/08/29 05:23:58;;;;;;;14.00;12.23;;;14.50;99.90;;;;;;5039446;28;20211;-65
2021/08/29 05:26:24;;;;;;;14.70;11.87;;;14.50;99.90;;;;;;5053583;28;20202;-65
2021/08/29 05:28:50;;;;;;;17.20;12.60;;;14.50;99.90;;;;;;5049134;28;20194;-65
2021/08/29 05:31:15;;;;;;;17.00;11.63;;;14.50;99.90;;;;;;5033134;28;20172;-65
2021/08/29 05:33:41;;;;;;;11.60;10.47;;;14.50;99.90;;;;;;5035307;28;20316;-65
2021/08/29 05:36:07;;;;;;;12.33;11.03;;;14.60;99.90;;;;;;5053549;28;20679;-65
2021/08/29 05:38:32;;;;;;;16.93;10.33;;;14.60;99.90;;;;;;5052697;28;20236;-65
2021/08/29 05:40:58;;;;;;;13.80;10.90;;;14.60;99.90;;;;;;5051906;28;20182;-66
2021/08/29 05:43:24;;;;;;;15.17;10.70;;;14.60;99.90;;;;;;5042083;28;20238;-65
2021/08/29 05:45:49;;;;;;;13.20;11.23;;;14.60;99.90;;;;;;5032276;28;20259;-65
2021/08/29 05:48:15;;;;;;;13.13;11.80;;;14.60;99.90;;;;;;5041918;28;20182;-65
2021/08/29 05:50:40;;;;;;;13.17;9.60;;;14.60;99.90;;;;;;5052650;28;20171;-65
2021/08/29 05:53:06;;;;;;;13.90;11.03;;;14.70;99.90;;;;;;5049439;28;20237;-65
2021/08/29 05:55:31;;;;;;;15.80;9.73;;;14.70;99.90;;;;;;5037786;28;20174;-65
2021/08/29 05:57:57;;;;;;;10.63;9.53;;;14.80;99.90;;;;;;5052116;28;20189;-65
2021/08/29 06:00:23;;;;;;;11.67;9.30;;;14.80;99.90;;;;;;5052482;28;20207;-65
2021/08/29 06:02:48;;;;;;;12.13;9.63;;;14.80;99.90;;;;;;5049140;28;20705;-65
2021/08/29 06:05:14;;;;;;;10.17;9.17;;;14.90;99.90;;;;;;5032635;28;20656;-66
2021/08/29 06:07:39;;;;;;;11.10;9.83;;;14.90;99.90;;;;;;5033786;28;20178;-65
2021/08/29 06:10:06;;;;;;;11.37;9.20;;;14.90;99.90;;;;;;5052338;28;20183;-65
2021/08/29 06:12:31;;;;;;;10.77;9.27;;;14.90;99.90;;;;;;5041531;28;20199;-65
2021/08/29 06:14:57;;;;;;;14.50;10.33;;;15.00;99.90;;;;;;5032566;28;20613;-65
2021/08/29 06:17:23;;;;;;;15.40;10.20;;;15.00;99.90;;;;;;5041035;28;20179;-65
2021/08/29 06:19:48;;;;;;;11.37;9.73;;;15.10;99.90;;;;;;5052187;28;20177;-65
2021/08/29 06:22:14;;;;;;;13.67;9.30;;;15.10;99.90;;;;;;5045204;28;20555;-65
2021/08/29 06:24:40;;;;;;;10.33;9.27;;;15.10;99.90;;;;;;5032286;28;20260;-65
2021/08/29 06:27:05;;;;;;;12.20;9.70;;;15.10;99.90;;;;;;5037005;28;20207;-65
2021/08/29 06:29:31;;;;;;;10.43;8.97;;;15.10;99.90;;;;;;5051987;28;20171;-65
2021/08/29 06:31:56;;;;;;;16.90;9.60;;;15.10;99.90;;;;;;5041367;28;20190;-65
2021/08/29 06:34:22;;;;;;;13.23;9.73;;;15.10;99.90;;;;;;5032201;28;20195;-65
2021/08/29 06:36:48;;;;;;;13.93;9.77;;;15.10;99.90;;;;;;5040691;28;20540;-65
2021/08/29 06:39:14;;;;;;;13.87;10.07;;;15.20;99.90;;;;;;5051920;28;20171;-65
2021/08/29 06:41:39;;;;;;;13.40;10.67;;;15.10;99.90;;;;;;5050077;28;20186;-65
2021/08/29 06:44:06;;;;;;;14.37;10.40;;;15.10;99.90;;;;;;5051912;28;20191;-65
2021/08/29 06:46:32;;;;;;;13.73;10.63;;;15.10;99.90;;;;;;5046561;28;20191;-65
2021/08/29 06:48:57;;;;;;;14.33;10.13;;;15.10;99.90;;;;;;5031963;28;20234;-65
2021/08/29 06:51:23;;;;;;;12.23;10.27;;;15.30;99.90;;;;;;5034680;28;20183;-65
2021/08/29 06:53:49;;;;;;;11.17;9.50;;;15.40;99.90;;;;;;5051698;28;20198;-65
2021/08/29 06:56:14;;;;;;;14.90;9.73;;;15.40;99.90;;;;;;5049833;28;20792;-65
2021/08/29 06:58:40;;;;;;;17.57;10.83;;;15.30;99.90;;;;;;5031752;28;20202;-65
2021/08/29 07:01:06;;;;;;;13.53;10.03;;;15.40;99.90;;;;;;5047929;28;20183;-65
2021/08/29 07:03:31;;;;;;;16.80;9.73;;;15.40;99.90;;;;;;5051614;28;20610;-65
2021/08/29 07:05:57;;;;;;;12.73;9.10;;;15.40;99.90;;;;;;5035262;28;20211;-65
2021/08/29 07:08:23;;;;;;;9.87;8.73;;;15.40;99.90;;;;;;5036802;28;20254;-65
2021/08/29 07:10:49;;;;;;;10.83;9.67;;;15.30;99.90;;;;;;5031258;28;20174;-65
2021/08/29 07:13:14;;;;;;;10.40;8.97;;;15.40;99.90;;;;;;5042076;28;20217;-65
2021/08/29 07:15:40;;;;;;;9.83;9.00;;;15.50;99.90;;;;;;5050625;28;20640;-65
2021/08/29 07:18:06;;;;;;;11.73;9.47;;;15.60;99.90;;;;;;5042588;28;20266;-65
2021/08/29 07:20:31;;;;;;;10.80;8.97;;;15.70;99.90;;;;;;5031303;28;20246;-65
2021/08/29 07:22:57;;;;;;;10.23;9.23;;;15.80;99.90;;;;;;5038147;28;20210;-65
2021/08/29 07:25:23;;;;;;;8.97;8.13;;;15.90;99.90;;;;;;5051142;28;20648;-65
2021/08/29 07:27:48;;;;;;;12.53;9.30;;;16.00;99.90;;;;;;5045862;28;20182;-65
2021/08/29 07:30:14;;;;;;;10.47;8.60;;;16.10;99.90;;;;;;5031490;28;20549;-65
2021/08/29 07:32:40;;;;;;;11.80;8.33;;;16.20;99.90;;;;;;5034638;28;20202;-65
2021/08/29 07:35:06;;;;;;;8.87;8.00;;;16.30;99.90;;;;;;5051361;28;20213;-65
2021/08/29 07:37:32;;;;;;;11.97;8.50;;;16.30;99.90;;;;;;5049642;28;20166;-65
2021/08/29 07:39:58;;;;;;;12.27;8.17;;;16.30;99.90;;;;;;5051058;28;20185;-65
2021/08/29 07:42:23;;;;;;;9.47;8.47;;;16.30;99.90;;;;;;5051178;28;20660;-65
2021/08/29 07:44:49;;;;;;;10.60;8.60;;;16.30;99.90;;;;;;5046761;28;20659;-65
2021/08/29 07:47:16;;;;;;;11.27;7.90;;;16.30;99.90;;;;;;5031297;28;20214;-65
2021/08/29 07:49:41;;;;;;;11.27;10.07;;;16.30;99.90;;;;;;5048906;28;20175;-65
2021/08/29 07:52:07;;;;;;;9.63;8.67;;;16.30;99.90;;;;;;5049968;28;20217;-65
2021/08/29 07:54:33;;;;;;;13.20;8.73;;;16.30;99.90;;;;;;5034765;28;20179;-66
2021/08/29 07:56:59;;;;;;;9.00;8.00;;;16.40;99.90;;;;;;5044087;28;20191;-65
2021/08/29 07:59:24;;;;;;;9.47;8.20;;;16.40;99.90;;;;;;5049906;28;20180;-65
2021/08/29 08:01:51;;;;;;;10.93;8.50;;;16.50;99.90;;;;;;5040211;28;20191;-65
2021/08/29 08:04:16;;;;;;;9.63;8.70;;;16.50;99.90;;;;;;5051175;28;20167;-65
2021/08/29 08:06:42;;;;;;;11.23;8.67;;;16.60;99.90;;;;;;5041977;28;20229;-65
2021/08/29 08:09:09;;;;;;;10.17;9.13;;;16.70;99.90;;;;;;5034872;28;20167;-66
2021/08/29 08:11:34;;;;;;;10.10;8.20;;;16.60;99.90;;;;;;5042088;28;20537;-65
2021/08/29 08:14:00;;;;;;;11.17;8.80;;;16.40;99.90;;;;;;5055082;28;20191;-66
2021/08/29 08:16:25;;;;;;;10.20;9.30;;;16.20;99.90;;;;;;5049346;28;20234;-66
2021/08/29 08:18:51;;;;;;;9.60;8.70;;;16.10;99.90;;;;;;5034855;28;20240;-66
2021/08/29 08:21:18;;;;;;;10.30;9.20;;;15.90;99.90;;;;;;5036750;28;20181;-66
2021/08/29 08:23:44;;;;;;;10.70;9.20;;;15.70;99.90;;;;;;5054691;28;20193;-66
2021/08/29 08:26:09;;;;;;;10.97;9.47;;;15.70;99.90;;;;;;5052512;28;20202;-66
2021/08/29 08:28:35;;;;;;;17.67;10.00;;;15.70;99.90;;;;;;5034765;28;20167;-65
2021/08/29 08:31:00;;;;;;;14.97;10.03;;;15.60;99.90;;;;;;5046389;28;20207;-66
2021/08/29 08:33:26;;;;;;;11.23;10.10;;;15.60;99.90;;;;;;5050868;28;20249;-65
2021/08/29 08:35:52;;;;;;;10.97;9.87;;;15.60;99.90;;;;;;5034622;28;20176;-66
2021/08/29 08:38:17;;;;;;;13.93;10.37;;;15.60;99.90;;;;;;5035699;28;20653;-66
2021/08/29 08:40:43;;;;;;;11.93;9.80;;;15.50;99.90;;;;;;5054079;28;20175;-66
2021/08/29 08:43:11;;;;;;;14.80;10.27;;;15.50;99.90;;;;;;5054203;28;20611;-66
2021/08/29 08:45:38;;;;;;;11.77;10.30;;;15.40;99.90;;;;;;5034517;28;20274;-66
2021/08/29 08:48:05;;;;;;;14.70;10.00;;;15.40;99.90;;;;;;5034412;28;20206;-66
2021/08/29 08:50:35;;;;;;;10.87;9.47;;;15.50;99.90;;;;;;5050925;28;20270;-66
2021/08/29 08:53:03;;;;;;;14.27;9.90;;;15.60;99.90;;;;;;5054114;28;20190;-66
2021/08/29 08:55:30;;;;;;;14.30;9.93;;;15.60;99.90;;;;;;5035862;28;20680;-66
2021/08/29 08:57:56;;;;;;;12.67;9.67;;;15.70;99.90;;;;;;5035158;28;20188;-66
2021/08/29 09:00:26;;;;;;;11.03;10.00;;;15.70;99.90;;;;;;5037157;28;20553;-66
2021/08/29 09:02:52;;;;;;;11.70;9.27;;;15.50;99.90;;;;;;5049336;28;20198;-66
2021/08/29 09:05:18;;;;;;;10.80;9.40;;;15.50;99.90;;;;;;5053921;28;20206;-66
2021/08/29 09:07:44;;;;;;;15.37;9.63;;;15.40;99.90;;;;;;5039899;28;20183;-66
2021/08/29 09:10:11;;;;;;;10.63;8.83;;;15.40;99.90;;;;;;5033717;28;20179;-66
2021/08/29 09:12:52;;;;;;;9.93;8.90;;;15.30;99.90;;;;;;5045830;28;20194;-66
2021/08/29 09:15:21;;;;;;;9.43;8.63;;;15.30;99.90;;;;;;5053730;28;20170;-66
2021/08/29 09:17:47;;;;;;;13.13;9.57;;;15.30;99.90;;;;;;5051688;28;20171;-66
2021/08/29 09:20:19;;;;;;;10.70;9.43;;;15.20;99.90;;;;;;5053463;28;20216;-66
2021/08/29 09:22:46;;;;;;;10.00;9.10;;;15.20;99.90;;;;;;5041790;28;20204;-66
2021/08/29 09:25:13;;;;;;;9.80;8.47;;;15.30;99.90;;;;;;5032566;28;20204;-66
2021/08/29 09:27:45;;;;;;;9.80;8.33;;;15.30;99.90;;;;;;5034773;28;20256;-66
2021/08/29 09:30:12;;;;;;;11.73;8.83;;;15.40;99.90;;;;;;5033559;28;20206;-66
2021/08/29 09:32:52;;;;;;;9.70;8.23;;;15.40;99.90;;;;;;5034619;28;20243;-66
2021/08/29 09:35:19;;;;;;;10.47;8.80;;;15.50;99.90;;;;;;5033606;28;20706;-66
2021/08/29 09:37:45;;;;;;;9.87;8.97;;;15.50;99.90;;;;;;5046337;28;20206;-66
2021/08/29 09:40:19;;;;;;;83.03;44.10;;;15.50;99.90;;;;;;5041944;28;20211;-66
2021/08/29 09:42:47;;;;;;;13.40;12.17;;;15.40;99.90;;;;;;5033359;28;20198;-66
2021/08/29 09:45:31;;;;;;;13.30;12.00;;;15.50;99.90;;;;;;5043437;28;20233;-66
2021/08/29 09:48:03;;;;;;;13.00;11.80;;;15.50;99.90;;;;;;5053461;28;20510;-66
2021/08/29 09:50:30;;;;;;;24.23;22.13;;;15.70;99.90;;;;;;5040525;28;20553;-66
2021/08/29 09:53:04;;;;;;;15.50;13.73;;;15.90;99.90;;;;;;5032936;28;20704;-66
2021/08/29 09:55:44;;;;;;;14.27;12.83;;;16.00;99.90;;;;;;5044562;28;20183;-66
2021/08/29 09:58:27;;;;;;;13.60;12.20;;;16.00;99.90;;;;;;5052947;28;20182;-66
2021/08/29 10:01:11;;;;;;;11.00;10.00;;;15.80;99.90;;;;;;5038172;28;20183;-65
2021/08/29 10:03:39;;;;;;;11.83;9.37;;;15.80;99.90;;;;;;5032697;28;20198;-66
2021/08/29 10:06:25;;;;;;;12.53;9.80;;;15.80;99.90;;;;;;5047876;28;20206;-66
2021/08/29 10:09:02;;;;;;;10.70;9.23;;;15.80;99.90;;;;;;5052945;28;20542;-66
2021/08/29 10:11:29;;;;;;;9.83;8.63;;;15.80;99.90;;;;;;5034502;28;20179;-66
2021/08/29 10:13:57;;;;;;;10.50;9.47;;;15.80;99.90;;;;;;5032687;28;20189;-66
2021/08/29 10:16:24;;;;;;;13.50;8.50;;;15.90;99.90;;;;;;5049017;28;20213;-66
2021/08/29 10:18:52;;;;;;;9.03;8.23;;;15.90;99.90;;;;;;5067878;28;20580;-66
2021/08/29 10:21:20;;;;;;;8.70;7.37;;;15.70;99.90;;;;;;5036897;28;20645;-66
2021/08/29 10:23:49;;;;;;;9.20;8.40;;;15.60;99.90;;;;;;5044262;28;20672;-66
2021/08/29 10:26:17;;;;;;;12.57;8.20;;;15.50;99.90;;;;;;5052323;28;20214;-66
2021/08/29 10:28:55;;;;;;;9.00;8.13;;;15.50;99.90;;;;;;5041125;28;20183;-66
2021/08/29 10:31:26;;;;;;;9.40;8.47;;;15.60;99.90;;;;;;5031524;28;20187;-66
2021/08/29 10:33:52;;;;;;;8.77;8.03;;;15.60;99.90;;;;;;5070875;22;20283;-67
2021/08/29 10:36:23;;;;;;;9.77;8.73;;;15.50;99.90;;;;;;5072377;28;20245;-67
2021/08/29 10:38:49;;;;;;;9.90;8.80;;;15.40;99.90;;;;;;5070190;28;20182;-67
2021/08/29 10:41:20;;;;;;;8.07;7.47;;;15.40;99.90;;;;;;5071734;28;20197;-67
2021/08/29 10:43:51;;;;;;;9.17;7.97;;;15.40;99.90;;;;;;5058039;28;20206;-68
2021/08/29 10:46:17;;;;;;;8.80;8.10;;;15.50;99.90;;;;;;5031139;28;20688;-67
2021/08/29 10:48:50;;;;;;;8.23;7.63;;;15.70;99.90;;;;;;5041212;28;20167;-69
2021/08/29 10:51:18;;;;;;;8.50;7.80;;;15.60;99.90;;;;;;5044781;28;20231;-68
2021/08/29 10:53:53;;;;;;;8.87;7.83;;;15.70;99.90;;;;;;5031913;28;20191;-67
2021/08/29 10:56:19;;;;;;;8.17;7.47;;;15.70;99.90;;;;;;5037563;28;20178;-69
2021/08/29 10:59:07;;;;;;;8.80;8.20;;;15.80;99.90;;;;;;5053090;28;20701;-68
2021/08/29 11:01:53;;;;;;;8.00;7.40;;;15.80;99.90;;;;;;5036118;28;20247;-69
2021/08/29 11:04:18;;;;;;;8.43;7.47;;;15.70;99.90;;;;;;5031692;28;20492;-69
2021/08/29 11:06:49;;;;;;;8.23;7.73;;;15.70;99.90;;;;;;5047133;28;20171;-70
2021/08/29 11:09:36;;;;;;;8.70;8.10;;;15.60;99.90;;;;;;5050327;28;20170;-68
2021/08/29 11:12:12;;;;;;;8.03;7.33;;;15.50;99.90;;;;;;5033670;28;20183;-68
2021/08/29 11:14:39;;;;;;;8.30;7.67;;;15.60;99.90;;;;;;5031779;28;20235;-69
2021/08/29 11:17:25;;;;;;;7.67;7.13;;;15.60;99.90;;;;;;5049306;28;20187;-68
2021/08/29 11:19:53;;;;;;;9.60;8.80;;;15.60;99.90;;;;;;5042342;28;20187;-69
2021/08/29 11:22:24;;;;;;;7.33;6.80;;;15.60;99.90;;;;;;5031712;28;20179;-70
2021/08/29 11:25:05;;;;;;;6.80;6.40;;;15.50;99.90;;;;;;5039491;28;20271;-69
2021/08/29 11:27:58;;;;;;;7.07;6.57;;;15.50;99.90;;;;;;5051524;28;20198;-68
2021/08/29 11:30:24;;;;;;;8.07;7.57;;;15.40;99.90;;;;;;5038754;28;20646;-67
2021/08/29 11:32:54;;;;;;;10.57;9.77;;;15.50;99.90;;;;;;5030270;28;20210;-68
2021/08/29 11:35:22;;;;;;;9.30;8.60;;;15.50;99.90;;;;;;5042329;28;20271;-69
2021/08/29 11:38:14;;;;;;;8.67;8.07;;;15.60;99.90;;;;;;5051501;28;20537;-69
2021/08/29 11:40:59;;;;;;;8.03;7.43;;;15.60;99.90;;;;;;5049814;28;20270;-70
2021/08/29 11:43:28;;;;;;;10.70;10.00;;;15.70;99.90;;;;;;5055496;28;20193;-69
2021/08/29 11:46:15;;;;;;;9.73;8.93;;;15.70;99.90;;;;;;5040662;28;20217;-69
2021/08/29 11:48:52;;;;;;;8.17;6.73;;;15.70;99.90;;;;;;5049271;28;20178;-70
2021/08/29 11:51:32;;;;;;;8.40;7.80;;;15.70;99.90;;;;;;5054065;28;20166;-67
2021/08/29 11:54:03;;;;;;;7.93;7.23;;;15.70;99.90;;;;;;5039383;28;20191;-69
2021/08/29 11:56:31;;;;;;;7.73;7.17;;;15.70;99.90;;;;;;5035598;28;20229;-69
2021/08/29 11:59:00;;;;;;;7.97;7.47;;;15.70;99.90;;;;;;5039435;28;20246;-68
2021/08/29 12:01:27;;;;;;;7.73;7.23;;;15.70;99.90;;;;;;5034916;28;20853;-69
2021/08/29 12:03:58;;;;;;;8.83;7.67;;;15.70;99.90;;;;;;5048779;28;20557;-68
2021/08/29 12:06:38;;;;;;;8.73;8.13;;;15.70;99.90;;;;;;5055081;28;20202;-69
2021/08/29 12:09:15;;;;;;;8.50;7.20;;;15.90;99.90;;;;;;5040270;28;20183;-69
2021/08/29 12:11:42;;;;;;;8.67;7.57;;;15.90;99.90;;;;;;5034832;28;20167;-70
2021/08/29 12:14:14;;;;;;;9.57;8.87;;;15.90;99.90;;;;;;5049513;28;20229;-69
2021/08/29 12:16:47;;;;;;;9.13;8.30;;;15.90;99.90;;;;;;5054912;28;20187;-69
2021/08/29 12:19:14;;;;;;;8.30;7.50;;;15.80;99.90;;;;;;5038501;28;20751;-68
2021/08/29 12:21:44;;;;;;;7.47;6.87;;;15.70;99.90;;;;;;5034726;28;20180;-68
2021/08/29 12:24:21;;;;;;;9.97;8.00;;;15.80;99.90;;;;;;5048690;28;20202;-68
2021/08/29 12:27:00;;;;;;;11.00;10.30;;;15.90;99.90;;;;;;5054946;28;20181;-67
2021/08/29 12:29:26;;;;;;;9.13;8.33;;;15.80;99.90;;;;;;5038643;28;20527;-67
2021/08/29 12:31:52;;;;;;;9.50;8.57;;;15.80;99.90;;;;;;5046020;28;20237;-68
2021/08/29 12:34:27;;;;;;;10.03;9.23;;;15.70;99.90;;;;;;5054549;28;20202;-69
2021/08/29 12:37:13;;;;;;;19.57;18.20;;;15.70;99.90;;;;;;5043408;28;20175;-67
2021/08/29 12:39:40;;;;;;;14.57;13.63;;;15.70;99.90;;;;;;5034274;28;20172;-68
2021/08/29 12:42:22;;;;;;;14.90;13.70;;;15.70;99.90;;;;;;5035697;28;20171;-67
2021/08/29 12:44:49;;;;;;;10.13;9.13;;;15.70;99.90;;;;;;5034446;28;20199;-68